sensor_id;sensor_type;location;lat;lon;timestamp;P1;durP1;ratioP1;P2;durP2;ratioP2
30743;SDS011;17486;46.738;7.622;2024-01-11T00:00:40;51.90;;;27.75;;
30743;SDS011;17486;46.738;7.622;2024-01-11T00:03:06;49.20;;;26.60;;
30743;SDS011;17486;46.738;7.622;2024-01-11T00:05:31;50.55;;;26.40;;
30743;SDS011;17486;46.738;7.622;2024-01-11T00:07:57;46.33;;;26.85;;
30743;SDS011;17486;46.738;7.622;2024-01-11T00:10:22;49.08;;;26.10;;
30743;SDS011;17486;46.738;7.622;2024-01-11T00:12:48;52.85;;;27.05;;
30743;SDS011;17486;46.738;7.622;2024-01-11T00:15:13;45.00;;;25.27;;
30743;SDS011;17486;46.738;7.622;2024-01-11T00:17:38;49.33;;;26.65;;
30743;SDS011;17486;46.738;7.622;2024-01-11T00:20:04;42.90;;;24.77;;
30743;SDS011;17486;46.738;7.622;2024-01-11T00:22:30;47.95;;;26.55;;
30743;SDS011;17486;46.738;7.622;2024-01-11T00:24:55;44.08;;;24.73;;
30743;SDS011;17486;46.738;7.622;2024-01-11T00:27:21;42.65;;;24.67;;
30743;SDS011;17486;46.738;7.622;2024-01-11T00:29:46;47.72;;;25.35;;
30743;SDS011;17486;46.738;7.622;2024-01-11T00:32:11;44.58;;;25.25;;
30743;SDS011;17486;46.738;7.622;2024-01-11T00:34:37;46.78;;;25.42;;
30743;SDS011;17486;46.738;7.622;2024-01-11T00:37:03;48.88;;;26.27;;
30743;SDS011;17486;46.738;7.622;2024-01-11T00:39:28;46.63;;;25.48;;
30743;SDS011;17486;46.738;7.622;2024-01-11T00:41:54;50.75;;;25.85;;
30743;SDS011;17486;46.738;7.622;2024-01-11T00:44:20;49.95;;;23.63;;
30743;SDS011;17486;46.738;7.622;2024-01-11T00:46:45;45.78;;;24.13;;
30743;SDS011;17486;46.738;7.622;2024-01-11T00:49:10;47.50;;;25.42;;
30743;SDS011;17486;46.738;7.622;2024-01-11T00:51:36;42.22;;;23.40;;
30743;SDS011;17486;46.738;7.622;2024-01-11T00:54:01;42.53;;;24.58;;
30743;SDS011;17486;46.738;7.622;2024-01-11T00:56:26;52.50;;;27.20;;
30743;SDS011;17486;46.738;7.622;2024-01-11T00:58:52;45.80;;;25.35;;
30743;SDS011;17486;46.738;7.622;2024-01-11T01:01:17;45.88;;;24.27;;
30743;SDS011;17486;46.738;7.622;2024-01-11T01:03:43;41.83;;;23.73;;
30743;SDS011;17486;46.738;7.622;2024-01-11T01:06:08;45.20;;;24.85;;
30743;SDS011;17486;46.738;7.622;2024-01-11T01:08:34;46.30;;;24.92;;
30743;SDS011;17486;46.738;7.622;2024-01-11T01:10:59;51.38;;;26.02;;
30743;SDS011;17486;46.738;7.622;2024-01-11T01:13:25;44.45;;;23.23;;
30743;SDS011;17486;46.738;7.622;2024-01-11T01:15:50;46.20;;;23.85;;
30743;SDS011;17486;46.738;7.622;2024-01-11T01:18:15;42.92;;;24.38;;
30743;SDS011;17486;46.738;7.622;2024-01-11T01:20:41;48.80;;;25.30;;
30743;SDS011;17486;46.738;7.622;2024-01-11T01:23:06;46.28;;;24.40;;
30743;SDS011;17486;46.738;7.622;2024-01-11T01:25:32;46.05;;;25.45;;
30743;SDS011;17486;46.738;7.622;2024-01-11T01:28:00;43.15;;;23.48;;
30743;SDS011;17486;46.738;7.622;2024-01-11T01:30:26;43.30;;;23.48;;
30743;SDS011;17486;46.738;7.622;2024-01-11T01:32:52;46.03;;;24.80;;
30743;SDS011;17486;46.738;7.622;2024-01-11T01:35:18;47.53;;;25.27;;
30743;SDS011;17486;46.738;7.622;2024-01-11T01:37:43;49.25;;;25.33;;
30743;SDS011;17486;46.738;7.622;2024-01-11T01:40:08;46.90;;;25.70;;
30743;SDS011;17486;46.738;7.622;2024-01-11T01:42:34;44.00;;;24.20;;
30743;SDS011;17486;46.738;7.622;2024-01-11T01:45:00;47.70;;;24.48;;
30743;SDS011;17486;46.738;7.622;2024-01-11T01:47:25;50.28;;;25.42;;
30743;SDS011;17486;46.738;7.622;2024-01-11T01:49:52;44.25;;;24.48;;
30743;SDS011;17486;46.738;7.622;2024-01-11T01:52:18;47.50;;;24.15;;
30743;SDS011;17486;46.738;7.622;2024-01-11T01:54:45;47.75;;;25.55;;
30743;SDS011;17486;46.738;7.622;2024-01-11T01:57:12;44.85;;;25.05;;
30743;SDS011;17486;46.738;7.622;2024-01-11T01:59:38;45.47;;;23.48;;
30743;SDS011;17486;46.738;7.622;2024-01-11T02:02:05;44.75;;;23.60;;
30743;SDS011;17486;46.738;7.622;2024-01-11T02:04:31;43.33;;;23.88;;
30743;SDS011;17486;46.738;7.622;2024-01-11T02:06:57;49.28;;;25.83;;
30743;SDS011;17486;46.738;7.622;2024-01-11T02:09:23;46.88;;;24.95;;
30743;SDS011;17486;46.738;7.622;2024-01-11T02:11:49;50.33;;;23.90;;
30743;SDS011;17486;46.738;7.622;2024-01-11T02:14:16;52.78;;;25.60;;
30743;SDS011;17486;46.738;7.622;2024-01-11T02:16:42;43.53;;;22.77;;
30743;SDS011;17486;46.738;7.622;2024-01-11T02:19:08;44.45;;;24.67;;
30743;SDS011;17486;46.738;7.622;2024-01-11T02:21:38;46.25;;;24.05;;
30743;SDS011;17486;46.738;7.622;2024-01-11T02:24:04;42.33;;;24.30;;
30743;SDS011;17486;46.738;7.622;2024-01-11T02:26:31;46.80;;;25.65;;
30743;SDS011;17486;46.738;7.622;2024-01-11T02:28:57;50.50;;;25.77;;
30743;SDS011;17486;46.738;7.622;2024-01-11T02:31:23;46.72;;;24.08;;
30743;SDS011;17486;46.738;7.622;2024-01-11T02:33:49;48.33;;;24.98;;
30743;SDS011;17486;46.738;7.622;2024-01-11T02:36:16;47.42;;;25.48;;
30743;SDS011;17486;46.738;7.622;2024-01-11T02:38:42;48.30;;;25.70;;
30743;SDS011;17486;46.738;7.622;2024-01-11T02:41:08;47.72;;;24.35;;
30743;SDS011;17486;46.738;7.622;2024-01-11T02:43:33;48.08;;;25.85;;
30743;SDS011;17486;46.738;7.622;2024-01-11T02:46:01;44.00;;;24.20;;
30743;SDS011;17486;46.738;7.622;2024-01-11T02:48:30;50.45;;;26.05;;
30743;SDS011;17486;46.738;7.622;2024-01-11T02:50:56;49.13;;;25.45;;
30743;SDS011;17486;46.738;7.622;2024-01-11T02:53:22;49.35;;;26.38;;
30743;SDS011;17486;46.738;7.622;2024-01-11T02:55:49;49.95;;;25.98;;
30743;SDS011;17486;46.738;7.622;2024-01-11T02:58:15;46.75;;;23.95;;
30743;SDS011;17486;46.738;7.622;2024-01-11T03:00:40;50.08;;;25.13;;
30743;SDS011;17486;46.738;7.622;2024-01-11T03:03:06;50.50;;;25.48;;
30743;SDS011;17486;46.738;7.622;2024-01-11T03:05:31;47.65;;;23.27;;
30743;SDS011;17486;46.738;7.622;2024-01-11T03:07:56;47.58;;;24.95;;
30743;SDS011;17486;46.738;7.622;2024-01-11T03:10:22;47.42;;;24.65;;
30743;SDS011;17486;46.738;7.622;2024-01-11T03:12:47;46.28;;;23.60;;
30743;SDS011;17486;46.738;7.622;2024-01-11T03:15:14;46.80;;;25.77;;
30743;SDS011;17486;46.738;7.622;2024-01-11T03:17:40;49.03;;;25.23;;
30743;SDS011;17486;46.738;7.622;2024-01-11T03:20:05;48.85;;;25.30;;
30743;SDS011;17486;46.738;7.622;2024-01-11T03:22:31;45.55;;;25.75;;
30743;SDS011;17486;46.738;7.622;2024-01-11T03:24:57;45.33;;;25.00;;
30743;SDS011;17486;46.738;7.622;2024-01-11T03:27:22;46.60;;;23.50;;
30743;SDS011;17486;46.738;7.622;2024-01-11T03:29:47;43.63;;;24.60;;
30743;SDS011;17486;46.738;7.622;2024-01-11T03:32:14;49.15;;;25.20;;
30743;SDS011;17486;46.738;7.622;2024-01-11T03:34:39;48.20;;;25.98;;
30743;SDS011;17486;46.738;7.622;2024-01-11T03:37:05;48.22;;;25.52;;
30743;SDS011;17486;46.738;7.622;2024-01-11T03:39:30;48.85;;;25.48;;
30743;SDS011;17486;46.738;7.622;2024-01-11T03:41:56;49.00;;;25.30;;
30743;SDS011;17486;46.738;7.622;2024-01-11T03:44:21;46.70;;;24.27;;
30743;SDS011;17486;46.738;7.622;2024-01-11T03:46:47;48.90;;;24.52;;
30743;SDS011;17486;46.738;7.622;2024-01-11T03:49:13;45.80;;;24.70;;
30743;SDS011;17486;46.738;7.622;2024-01-11T03:51:38;46.53;;;25.90;;
30743;SDS011;17486;46.738;7.622;2024-01-11T03:54:03;50.03;;;25.92;;
30743;SDS011;17486;46.738;7.622;2024-01-11T03:56:29;51.10;;;25.25;;
30743;SDS011;17486;46.738;7.622;2024-01-11T03:58:55;50.45;;;26.48;;
30743;SDS011;17486;46.738;7.622;2024-01-11T04:01:20;49.58;;;26.08;;
30743;SDS011;17486;46.738;7.622;2024-01-11T04:03:46;48.72;;;25.13;;
30743;SDS011;17486;46.738;7.622;2024-01-11T04:06:21;54.85;;;27.90;;
30743;SDS011;17486;46.738;7.622;2024-01-11T04:08:47;53.97;;;26.75;;
30743;SDS011;17486;46.738;7.622;2024-01-11T04:11:13;48.65;;;26.23;;
30743;SDS011;17486;46.738;7.622;2024-01-11T04:13:38;52.80;;;26.88;;
30743;SDS011;17486;46.738;7.622;2024-01-11T04:16:07;55.45;;;27.33;;
30743;SDS011;17486;46.738;7.622;2024-01-11T04:18:33;50.17;;;26.65;;
30743;SDS011;17486;46.738;7.622;2024-01-11T04:20:58;46.65;;;25.23;;
30743;SDS011;17486;46.738;7.622;2024-01-11T04:23:24;50.75;;;25.90;;
30743;SDS011;17486;46.738;7.622;2024-01-11T04:25:49;52.45;;;26.73;;
30743;SDS011;17486;46.738;7.622;2024-01-11T04:28:16;46.90;;;24.92;;
30743;SDS011;17486;46.738;7.622;2024-01-11T04:30:42;46.22;;;24.00;;
30743;SDS011;17486;46.738;7.622;2024-01-11T04:33:07;50.42;;;25.55;;
30743;SDS011;17486;46.738;7.622;2024-01-11T04:35:33;46.63;;;23.67;;
30743;SDS011;17486;46.738;7.622;2024-01-11T04:37:58;44.28;;;23.45;;
30743;SDS011;17486;46.738;7.622;2024-01-11T04:40:23;53.15;;;26.45;;
30743;SDS011;17486;46.738;7.622;2024-01-11T04:42:49;48.00;;;24.23;;
30743;SDS011;17486;46.738;7.622;2024-01-11T04:45:14;46.90;;;24.85;;
30743;SDS011;17486;46.738;7.622;2024-01-11T04:47:40;46.20;;;24.17;;
30743;SDS011;17486;46.738;7.622;2024-01-11T04:50:06;39.53;;;22.77;;
30743;SDS011;17486;46.738;7.622;2024-01-11T04:52:32;44.65;;;23.52;;
30743;SDS011;17486;46.738;7.622;2024-01-11T04:54:57;50.58;;;25.13;;
30743;SDS011;17486;46.738;7.622;2024-01-11T04:57:22;41.50;;;23.05;;
30743;SDS011;17486;46.738;7.622;2024-01-11T04:59:48;42.90;;;23.80;;
30743;SDS011;17486;46.738;7.622;2024-01-11T05:02:13;43.03;;;25.08;;
30743;SDS011;17486;46.738;7.622;2024-01-11T05:04:39;46.25;;;23.42;;
30743;SDS011;17486;46.738;7.622;2024-01-11T05:07:04;48.78;;;24.30;;
30743;SDS011;17486;46.738;7.622;2024-01-11T05:09:29;39.90;;;22.67;;
30743;SDS011;17486;46.738;7.622;2024-01-11T05:11:55;43.83;;;23.33;;
30743;SDS011;17486;46.738;7.622;2024-01-11T05:14:20;42.95;;;22.35;;
30743;SDS011;17486;46.738;7.622;2024-01-11T05:16:45;43.00;;;22.80;;
30743;SDS011;17486;46.738;7.622;2024-01-11T05:19:11;45.63;;;24.08;;
30743;SDS011;17486;46.738;7.622;2024-01-11T05:21:36;44.97;;;24.45;;
30743;SDS011;17486;46.738;7.622;2024-01-11T05:24:01;43.20;;;23.15;;
30743;SDS011;17486;46.738;7.622;2024-01-11T05:26:27;43.58;;;22.65;;
30743;SDS011;17486;46.738;7.622;2024-01-11T05:28:52;39.47;;;21.73;;
30743;SDS011;17486;46.738;7.622;2024-01-11T05:31:18;38.83;;;20.55;;
30743;SDS011;17486;46.738;7.622;2024-01-11T05:33:44;41.35;;;21.42;;
30743;SDS011;17486;46.738;7.622;2024-01-11T05:36:10;34.92;;;19.85;;
30743;SDS011;17486;46.738;7.622;2024-01-11T05:38:37;35.60;;;19.20;;
30743;SDS011;17486;46.738;7.622;2024-01-11T05:41:04;35.33;;;17.98;;
30743;SDS011;17486;46.738;7.622;2024-01-11T05:43:29;35.75;;;21.00;;
30743;SDS011;17486;46.738;7.622;2024-01-11T05:45:54;36.20;;;19.90;;
30743;SDS011;17486;46.738;7.622;2024-01-11T05:48:20;33.95;;;18.60;;
30743;SDS011;17486;46.738;7.622;2024-01-11T05:50:45;40.83;;;20.60;;
30743;SDS011;17486;46.738;7.622;2024-01-11T05:53:11;39.53;;;20.55;;
30743;SDS011;17486;46.738;7.622;2024-01-11T05:55:37;36.15;;;20.45;;
30743;SDS011;17486;46.738;7.622;2024-01-11T05:58:02;39.33;;;21.02;;
30743;SDS011;17486;46.738;7.622;2024-01-11T06:00:28;39.95;;;21.42;;
30743;SDS011;17486;46.738;7.622;2024-01-11T06:02:53;40.03;;;21.02;;
30743;SDS011;17486;46.738;7.622;2024-01-11T06:05:19;34.95;;;19.92;;
30743;SDS011;17486;46.738;7.622;2024-01-11T06:07:44;37.35;;;20.15;;
30743;SDS011;17486;46.738;7.622;2024-01-11T06:10:09;31.95;;;18.80;;
30743;SDS011;17486;46.738;7.622;2024-01-11T06:12:35;38.70;;;18.38;;
30743;SDS011;17486;46.738;7.622;2024-01-11T06:15:01;34.20;;;19.08;;
30743;SDS011;17486;46.738;7.622;2024-01-11T06:17:27;33.83;;;18.42;;
30743;SDS011;17486;46.738;7.622;2024-01-11T06:19:52;35.95;;;19.90;;
30743;SDS011;17486;46.738;7.622;2024-01-11T06:22:18;34.95;;;20.42;;
30743;SDS011;17486;46.738;7.622;2024-01-11T06:24:44;35.17;;;18.80;;
30743;SDS011;17486;46.738;7.622;2024-01-11T06:27:09;35.33;;;19.27;;
30743;SDS011;17486;46.738;7.622;2024-01-11T06:29:34;37.10;;;18.45;;
30743;SDS011;17486;46.738;7.622;2024-01-11T06:32:00;35.25;;;18.45;;
30743;SDS011;17486;46.738;7.622;2024-01-11T06:34:25;33.30;;;18.27;;
30743;SDS011;17486;46.738;7.622;2024-01-11T06:36:50;30.17;;;16.80;;
30743;SDS011;17486;46.738;7.622;2024-01-11T06:39:16;31.23;;;16.75;;
30743;SDS011;17486;46.738;7.622;2024-01-11T06:41:41;33.85;;;17.83;;
30743;SDS011;17486;46.738;7.622;2024-01-11T06:44:07;32.65;;;18.00;;
30743;SDS011;17486;46.738;7.622;2024-01-11T06:46:32;34.92;;;19.02;;
30743;SDS011;17486;46.738;7.622;2024-01-11T06:48:58;33.55;;;18.00;;
30743;SDS011;17486;46.738;7.622;2024-01-11T06:51:23;35.42;;;17.85;;
30743;SDS011;17486;46.738;7.622;2024-01-11T06:53:49;32.75;;;17.40;;
30743;SDS011;17486;46.738;7.622;2024-01-11T06:56:15;29.55;;;17.05;;
30743;SDS011;17486;46.738;7.622;2024-01-11T06:58:42;32.53;;;17.30;;
30743;SDS011;17486;46.738;7.622;2024-01-11T07:01:09;31.08;;;16.98;;
30743;SDS011;17486;46.738;7.622;2024-01-11T07:03:35;28.33;;;16.48;;
30743;SDS011;17486;46.738;7.622;2024-01-11T07:06:01;26.90;;;15.32;;
30743;SDS011;17486;46.738;7.622;2024-01-11T07:08:28;27.60;;;15.57;;
30743;SDS011;17486;46.738;7.622;2024-01-11T07:10:53;25.60;;;15.45;;
30743;SDS011;17486;46.738;7.622;2024-01-11T07:13:19;24.65;;;15.07;;
30743;SDS011;17486;46.738;7.622;2024-01-11T07:15:44;29.30;;;15.23;;
30743;SDS011;17486;46.738;7.622;2024-01-11T07:18:10;28.88;;;16.45;;
30743;SDS011;17486;46.738;7.622;2024-01-11T07:20:35;26.60;;;15.65;;
30743;SDS011;17486;46.738;7.622;2024-01-11T07:23:00;26.95;;;15.80;;
30743;SDS011;17486;46.738;7.622;2024-01-11T07:25:26;27.30;;;15.23;;
30743;SDS011;17486;46.738;7.622;2024-01-11T07:27:51;31.95;;;17.35;;
30743;SDS011;17486;46.738;7.622;2024-01-11T07:30:17;29.02;;;16.40;;
30743;SDS011;17486;46.738;7.622;2024-01-11T07:32:45;29.38;;;17.45;;
30743;SDS011;17486;46.738;7.622;2024-01-11T07:35:11;29.08;;;16.55;;
30743;SDS011;17486;46.738;7.622;2024-01-11T07:37:37;28.75;;;16.73;;
30743;SDS011;17486;46.738;7.622;2024-01-11T07:40:03;31.48;;;15.43;;
30743;SDS011;17486;46.738;7.622;2024-01-11T07:42:29;31.95;;;16.30;;
30743;SDS011;17486;46.738;7.622;2024-01-11T07:44:54;25.85;;;15.88;;
30743;SDS011;17486;46.738;7.622;2024-01-11T07:47:20;26.83;;;16.13;;
30743;SDS011;17486;46.738;7.622;2024-01-11T07:49:45;30.70;;;15.60;;
30743;SDS011;17486;46.738;7.622;2024-01-11T07:52:11;27.70;;;14.75;;
30743;SDS011;17486;46.738;7.622;2024-01-11T07:54:36;24.95;;;13.07;;
30743;SDS011;17486;46.738;7.622;2024-01-11T07:57:02;27.90;;;14.38;;
30743;SDS011;17486;46.738;7.622;2024-01-11T07:59:32;29.67;;;16.15;;
30743;SDS011;17486;46.738;7.622;2024-01-11T08:01:58;26.50;;;15.93;;
30743;SDS011;17486;46.738;7.622;2024-01-11T08:04:23;28.00;;;17.27;;
30743;SDS011;17486;46.738;7.622;2024-01-11T08:06:48;31.73;;;17.38;;
30743;SDS011;17486;46.738;7.622;2024-01-11T08:09:14;30.38;;;17.15;;
30743;SDS011;17486;46.738;7.622;2024-01-11T08:11:39;26.50;;;16.08;;
30743;SDS011;17486;46.738;7.622;2024-01-11T08:14:06;24.98;;;15.30;;
30743;SDS011;17486;46.738;7.622;2024-01-11T08:16:32;28.17;;;16.52;;
30743;SDS011;17486;46.738;7.622;2024-01-11T08:18:57;27.33;;;16.02;;
30743;SDS011;17486;46.738;7.622;2024-01-11T08:21:23;30.58;;;17.95;;
30743;SDS011;17486;46.738;7.622;2024-01-11T08:23:49;33.60;;;18.88;;
30743;SDS011;17486;46.738;7.622;2024-01-11T08:26:15;32.92;;;19.38;;
30743;SDS011;17486;46.738;7.622;2024-01-11T08:28:41;33.35;;;19.35;;
30743;SDS011;17486;46.738;7.622;2024-01-11T08:31:07;37.80;;;20.42;;
30743;SDS011;17486;46.738;7.622;2024-01-11T08:33:33;40.70;;;19.75;;
30743;SDS011;17486;46.738;7.622;2024-01-11T08:35:59;34.97;;;19.65;;
30743;SDS011;17486;46.738;7.622;2024-01-11T08:38:24;37.63;;;19.80;;
30743;SDS011;17486;46.738;7.622;2024-01-11T08:40:50;38.38;;;21.20;;
30743;SDS011;17486;46.738;7.622;2024-01-11T08:43:16;34.40;;;19.35;;
30743;SDS011;17486;46.738;7.622;2024-01-11T08:45:41;36.97;;;19.50;;
30743;SDS011;17486;46.738;7.622;2024-01-11T08:48:08;37.08;;;20.00;;
30743;SDS011;17486;46.738;7.622;2024-01-11T08:50:34;40.55;;;21.15;;
30743;SDS011;17486;46.738;7.622;2024-01-11T08:53:00;37.58;;;19.50;;
30743;SDS011;17486;46.738;7.622;2024-01-11T08:55:25;41.40;;;19.65;;
30743;SDS011;17486;46.738;7.622;2024-01-11T08:57:51;40.42;;;20.90;;
30743;SDS011;17486;46.738;7.622;2024-01-11T09:00:17;39.70;;;21.30;;
30743;SDS011;17486;46.738;7.622;2024-01-11T09:02:43;42.08;;;22.73;;
30743;SDS011;17486;46.738;7.622;2024-01-11T09:05:09;39.10;;;21.50;;
30743;SDS011;17486;46.738;7.622;2024-01-11T09:07:34;40.42;;;21.23;;
30743;SDS011;17486;46.738;7.622;2024-01-11T09:10:00;40.65;;;21.17;;
30743;SDS011;17486;46.738;7.622;2024-01-11T09:12:25;44.85;;;21.17;;
30743;SDS011;17486;46.738;7.622;2024-01-11T09:14:50;41.85;;;21.33;;
30743;SDS011;17486;46.738;7.622;2024-01-11T09:17:16;44.05;;;22.00;;
30743;SDS011;17486;46.738;7.622;2024-01-11T09:19:41;48.92;;;22.38;;
30743;SDS011;17486;46.738;7.622;2024-01-11T09:22:06;45.75;;;22.55;;
30743;SDS011;17486;46.738;7.622;2024-01-11T09:24:35;42.15;;;22.33;;
30743;SDS011;17486;46.738;7.622;2024-01-11T09:27:00;38.35;;;20.77;;
30743;SDS011;17486;46.738;7.622;2024-01-11T09:29:26;41.15;;;21.00;;
30743;SDS011;17486;46.738;7.622;2024-01-11T09:31:52;46.95;;;22.52;;
30743;SDS011;17486;46.738;7.622;2024-01-11T09:34:18;37.63;;;21.40;;
30743;SDS011;17486;46.738;7.622;2024-01-11T09:36:44;43.35;;;22.75;;
30743;SDS011;17486;46.738;7.622;2024-01-11T09:39:10;41.42;;;22.80;;
30743;SDS011;17486;46.738;7.622;2024-01-11T09:41:38;40.38;;;20.88;;
30743;SDS011;17486;46.738;7.622;2024-01-11T09:44:08;41.03;;;20.30;;
30743;SDS011;17486;46.738;7.622;2024-01-11T09:46:34;37.15;;;21.83;;
30743;SDS011;17486;46.738;7.622;2024-01-11T09:49:00;41.22;;;21.67;;
30743;SDS011;17486;46.738;7.622;2024-01-11T09:51:28;41.80;;;20.95;;
30743;SDS011;17486;46.738;7.622;2024-01-11T09:53:54;41.30;;;21.08;;
30743;SDS011;17486;46.738;7.622;2024-01-11T09:56:21;41.08;;;21.70;;
30743;SDS011;17486;46.738;7.622;2024-01-11T09:58:48;39.30;;;21.27;;
30743;SDS011;17486;46.738;7.622;2024-01-11T10:01:14;46.28;;;22.38;;
30743;SDS011;17486;46.738;7.622;2024-01-11T10:03:40;41.53;;;22.60;;
30743;SDS011;17486;46.738;7.622;2024-01-11T10:06:08;44.65;;;23.33;;
30743;SDS011;17486;46.738;7.622;2024-01-11T10:08:35;44.13;;;22.25;;
30743;SDS011;17486;46.738;7.622;2024-01-11T10:11:01;40.13;;;20.83;;
30743;SDS011;17486;46.738;7.622;2024-01-11T10:13:29;39.42;;;21.00;;
30743;SDS011;17486;46.738;7.622;2024-01-11T10:16:04;43.30;;;22.25;;
30743;SDS011;17486;46.738;7.622;2024-01-11T10:18:31;42.85;;;22.42;;
30743;SDS011;17486;46.738;7.622;2024-01-11T10:20:57;42.33;;;21.38;;
30743;SDS011;17486;46.738;7.622;2024-01-11T10:23:22;37.75;;;19.42;;
30743;SDS011;17486;46.738;7.622;2024-01-11T10:25:48;39.72;;;21.05;;
30743;SDS011;17486;46.738;7.622;2024-01-11T10:28:13;46.08;;;22.00;;
30743;SDS011;17486;46.738;7.622;2024-01-11T10:30:39;38.35;;;20.50;;
30743;SDS011;17486;46.738;7.622;2024-01-11T10:33:06;46.47;;;23.27;;
30743;SDS011;17486;46.738;7.622;2024-01-11T10:35:32;44.78;;;21.02;;
30743;SDS011;17486;46.738;7.622;2024-01-11T10:38:00;46.33;;;22.35;;
30743;SDS011;17486;46.738;7.622;2024-01-11T10:40:33;41.08;;;20.73;;
30743;SDS011;17486;46.738;7.622;2024-01-11T10:42:59;39.60;;;20.15;;
30743;SDS011;17486;46.738;7.622;2024-01-11T10:45:26;40.10;;;20.52;;
30743;SDS011;17486;46.738;7.622;2024-01-11T10:47:54;40.28;;;19.27;;
30743;SDS011;17486;46.738;7.622;2024-01-11T10:50:22;38.60;;;19.48;;
30743;SDS011;17486;46.738;7.622;2024-01-11T10:53:06;35.75;;;19.58;;
30743;SDS011;17486;46.738;7.622;2024-01-11T10:55:39;34.83;;;18.75;;
30743;SDS011;17486;46.738;7.622;2024-01-11T10:58:12;36.50;;;17.95;;
30743;SDS011;17486;46.738;7.622;2024-01-11T11:00:38;39.47;;;21.02;;
30743;SDS011;17486;46.738;7.622;2024-01-11T11:03:04;37.50;;;19.13;;
30743;SDS011;17486;46.738;7.622;2024-01-11T11:05:32;41.80;;;20.08;;
30743;SDS011;17486;46.738;7.622;2024-01-11T11:08:00;39.08;;;20.45;;
30743;SDS011;17486;46.738;7.622;2024-01-11T11:10:30;41.33;;;20.67;;
30743;SDS011;17486;46.738;7.622;2024-01-11T11:12:57;36.10;;;19.35;;
30743;SDS011;17486;46.738;7.622;2024-01-11T11:15:24;43.42;;;21.17;;
30743;SDS011;17486;46.738;7.622;2024-01-11T11:17:52;40.47;;;21.13;;
30743;SDS011;17486;46.738;7.622;2024-01-11T11:20:18;42.47;;;22.33;;
30743;SDS011;17486;46.738;7.622;2024-01-11T11:22:48;37.30;;;20.48;;
30743;SDS011;17486;46.738;7.622;2024-01-11T11:25:30;42.80;;;22.67;;
30743;SDS011;17486;46.738;7.622;2024-01-11T11:27:56;40.30;;;20.08;;
30743;SDS011;17486;46.738;7.622;2024-01-11T11:30:21;38.08;;;20.15;;
30743;SDS011;17486;46.738;7.622;2024-01-11T11:32:46;38.90;;;20.95;;
30743;SDS011;17486;46.738;7.622;2024-01-11T11:35:12;41.30;;;21.08;;
30743;SDS011;17486;46.738;7.622;2024-01-11T11:37:38;37.22;;;20.77;;
30743;SDS011;17486;46.738;7.622;2024-01-11T11:40:05;37.05;;;20.23;;
30743;SDS011;17486;46.738;7.622;2024-01-11T11:42:31;41.72;;;20.13;;
30743;SDS011;17486;46.738;7.622;2024-01-11T11:44:58;36.67;;;19.75;;
30743;SDS011;17486;46.738;7.622;2024-01-11T11:47:24;36.55;;;19.58;;
30743;SDS011;17486;46.738;7.622;2024-01-11T11:52:32;35.05;;;18.10;;
30743;SDS011;17486;46.738;7.622;2024-01-11T11:54:59;36.03;;;19.83;;
30743;SDS011;17486;46.738;7.622;2024-01-11T11:57:26;36.90;;;18.10;;
30743;SDS011;17486;46.738;7.622;2024-01-11T11:59:54;42.15;;;19.92;;
30743;SDS011;17486;46.738;7.622;2024-01-11T12:02:22;42.25;;;21.02;;
30743;SDS011;17486;46.738;7.622;2024-01-11T12:04:48;40.65;;;20.15;;
30743;SDS011;17486;46.738;7.622;2024-01-11T12:07:14;34.00;;;19.08;;
30743;SDS011;17486;46.738;7.622;2024-01-11T12:09:40;38.90;;;19.95;;
30743;SDS011;17486;46.738;7.622;2024-01-11T12:12:06;37.03;;;19.58;;
30743;SDS011;17486;46.738;7.622;2024-01-11T12:14:33;33.65;;;19.23;;
30743;SDS011;17486;46.738;7.622;2024-01-11T12:16:59;38.67;;;18.98;;
30743;SDS011;17486;46.738;7.622;2024-01-11T12:19:25;38.13;;;18.92;;
30743;SDS011;17486;46.738;7.622;2024-01-11T12:21:50;37.78;;;20.00;;
30743;SDS011;17486;46.738;7.622;2024-01-11T12:24:16;38.25;;;19.27;;
30743;SDS011;17486;46.738;7.622;2024-01-11T12:26:45;43.92;;;21.27;;
30743;SDS011;17486;46.738;7.622;2024-01-11T12:29:11;37.33;;;19.95;;
30743;SDS011;17486;46.738;7.622;2024-01-11T12:31:38;41.20;;;20.48;;
30743;SDS011;17486;46.738;7.622;2024-01-11T12:34:03;41.80;;;20.27;;
30743;SDS011;17486;46.738;7.622;2024-01-11T12:36:30;41.95;;;20.23;;
30743;SDS011;17486;46.738;7.622;2024-01-11T12:38:57;40.58;;;20.60;;
30743;SDS011;17486;46.738;7.622;2024-01-11T12:41:23;43.28;;;20.13;;
30743;SDS011;17486;46.738;7.622;2024-01-11T12:43:49;37.15;;;18.50;;
30743;SDS011;17486;46.738;7.622;2024-01-11T12:46:15;34.63;;;18.73;;
30743;SDS011;17486;46.738;7.622;2024-01-11T12:48:41;33.30;;;18.25;;
30743;SDS011;17486;46.738;7.622;2024-01-11T12:51:07;27.27;;;14.68;;
30743;SDS011;17486;46.738;7.622;2024-01-11T12:53:32;30.45;;;16.27;;
30743;SDS011;17486;46.738;7.622;2024-01-11T12:56:07;31.33;;;16.10;;
30743;SDS011;17486;46.738;7.622;2024-01-11T12:58:38;28.42;;;16.55;;
30743;SDS011;17486;46.738;7.622;2024-01-11T13:01:07;31.42;;;16.52;;
30743;SDS011;17486;46.738;7.622;2024-01-11T13:03:37;31.30;;;16.55;;
30743;SDS011;17486;46.738;7.622;2024-01-11T13:06:04;30.80;;;16.45;;
30743;SDS011;17486;46.738;7.622;2024-01-11T13:08:30;29.95;;;15.80;;
30743;SDS011;17486;46.738;7.622;2024-01-11T13:10:56;29.92;;;15.20;;
30743;SDS011;17486;46.738;7.622;2024-01-11T13:13:22;29.85;;;16.27;;
30743;SDS011;17486;46.738;7.622;2024-01-11T13:15:47;28.60;;;14.88;;
30743;SDS011;17486;46.738;7.622;2024-01-11T13:18:13;27.23;;;15.13;;
30743;SDS011;17486;46.738;7.622;2024-01-11T13:20:38;30.83;;;16.50;;
30743;SDS011;17486;46.738;7.622;2024-01-11T13:23:19;26.88;;;16.02;;
30743;SDS011;17486;46.738;7.622;2024-01-11T13:25:46;34.10;;;17.17;;
30743;SDS011;17486;46.738;7.622;2024-01-11T13:28:12;29.00;;;16.42;;
30743;SDS011;17486;46.738;7.622;2024-01-11T13:30:42;28.17;;;15.57;;
30743;SDS011;17486;46.738;7.622;2024-01-11T13:33:09;27.35;;;16.25;;
30743;SDS011;17486;46.738;7.622;2024-01-11T13:35:38;28.73;;;15.35;;
30743;SDS011;17486;46.738;7.622;2024-01-11T13:38:05;30.00;;;16.50;;
30743;SDS011;17486;46.738;7.622;2024-01-11T13:40:31;31.58;;;16.83;;
30743;SDS011;17486;46.738;7.622;2024-01-11T13:42:57;26.58;;;15.27;;
30743;SDS011;17486;46.738;7.622;2024-01-11T13:45:26;29.50;;;16.33;;
30743;SDS011;17486;46.738;7.622;2024-01-11T13:47:52;28.30;;;15.63;;
30743;SDS011;17486;46.738;7.622;2024-01-11T13:50:20;30.58;;;16.55;;
30743;SDS011;17486;46.738;7.622;2024-01-11T13:52:46;36.08;;;19.05;;
30743;SDS011;17486;46.738;7.622;2024-01-11T13:55:12;39.47;;;21.77;;
30743;SDS011;17486;46.738;7.622;2024-01-11T13:57:38;35.83;;;18.67;;
30743;SDS011;17486;46.738;7.622;2024-01-11T14:00:04;32.60;;;17.13;;
30743;SDS011;17486;46.738;7.622;2024-01-11T14:02:30;31.38;;;16.92;;
30743;SDS011;17486;46.738;7.622;2024-01-11T14:04:56;30.38;;;16.27;;
30743;SDS011;17486;46.738;7.622;2024-01-11T14:07:22;27.30;;;16.05;;
30743;SDS011;17486;46.738;7.622;2024-01-11T14:09:47;27.77;;;16.02;;
30743;SDS011;17486;46.738;7.622;2024-01-11T14:12:13;29.15;;;16.35;;
30743;SDS011;17486;46.738;7.622;2024-01-11T14:14:40;27.75;;;15.35;;
30743;SDS011;17486;46.738;7.622;2024-01-11T14:17:06;30.92;;;16.63;;